sensor_id;sensor_type;location;lat;lon;timestamp;P1;durP1;ratioP1;P2;durP2;ratioP2
34489;SDS011;20730;49.372;7.324;2024-02-04T00:00:52;8.25;;;5.57;;
34489;SDS011;20730;49.372;7.324;2024-02-04T00:03:19;5.97;;;5.38;;
34489;SDS011;20730;49.372;7.324;2024-02-04T00:05:46;6.70;;;5.50;;
34489;SDS011;20730;49.372;7.324;2024-02-04T00:08:13;6.38;;;5.03;;
34489;SDS011;20730;49.372;7.324;2024-02-04T00:10:44;7.43;;;5.85;;
34489;SDS011;20730;49.372;7.324;2024-02-04T00:13:10;5.57;;;4.65;;
34489;SDS011;20730;49.372;7.324;2024-02-04T00:15:37;8.30;;;5.18;;
34489;SDS011;20730;49.372;7.324;2024-02-04T00:18:04;7.57;;;5.10;;
34489;SDS011;20730;49.372;7.324;2024-02-04T00:20:30;5.88;;;4.80;;
34489;SDS011;20730;49.372;7.324;2024-02-04T00:22:59;5.70;;;4.47;;
34489;SDS011;20730;49.372;7.324;2024-02-04T00:25:25;5.60;;;4.93;;
34489;SDS011;20730;49.372;7.324;2024-02-04T00:27:52;7.50;;;5.20;;
34489;SDS011;20730;49.372;7.324;2024-02-04T00:30:19;5.63;;;4.60;;
34489;SDS011;20730;49.372;7.324;2024-02-04T00:32:45;7.20;;;5.03;;
34489;SDS011;20730;49.372;7.324;2024-02-04T00:35:12;4.80;;;4.30;;
34489;SDS011;20730;49.372;7.324;2024-02-04T00:37:39;5.40;;;4.70;;
34489;SDS011;20730;49.372;7.324;2024-02-04T00:40:06;6.22;;;4.25;;
34489;SDS011;20730;49.372;7.324;2024-02-04T00:42:32;5.00;;;4.53;;
34489;SDS011;20730;49.372;7.324;2024-02-04T00:44:59;4.45;;;3.88;;
34489;SDS011;20730;49.372;7.324;2024-02-04T00:47:25;5.00;;;4.25;;
34489;SDS011;20730;49.372;7.324;2024-02-04T00:49:52;4.85;;;4.20;;
34489;SDS011;20730;49.372;7.324;2024-02-04T00:52:20;4.53;;;3.95;;
34489;SDS011;20730;49.372;7.324;2024-02-04T00:54:46;5.47;;;4.50;;
34489;SDS011;20730;49.372;7.324;2024-02-04T00:57:13;4.60;;;4.07;;
34489;SDS011;20730;49.372;7.324;2024-02-04T00:59:40;5.05;;;3.97;;
34489;SDS011;20730;49.372;7.324;2024-02-04T01:02:06;4.65;;;3.53;;
34489;SDS011;20730;49.372;7.324;2024-02-04T01:04:33;4.28;;;3.65;;
34489;SDS011;20730;49.372;7.324;2024-02-04T01:07:00;5.90;;;3.45;;
34489;SDS011;20730;49.372;7.324;2024-02-04T01:09:28;3.40;;;3.10;;
34489;SDS011;20730;49.372;7.324;2024-02-04T01:11:54;3.85;;;3.03;;
34489;SDS011;20730;49.372;7.324;2024-02-04T01:14:21;3.42;;;3.10;;
34489;SDS011;20730;49.372;7.324;2024-02-04T01:16:47;2.83;;;2.53;;
34489;SDS011;20730;49.372;7.324;2024-02-04T01:19:14;3.30;;;2.67;;
34489;SDS011;20730;49.372;7.324;2024-02-04T01:21:41;2.83;;;2.53;;
34489;SDS011;20730;49.372;7.324;2024-02-04T01:24:07;3.33;;;3.00;;
34489;SDS011;20730;49.372;7.324;2024-02-04T01:26:34;3.20;;;2.83;;
34489;SDS011;20730;49.372;7.324;2024-02-04T01:29:00;3.08;;;2.63;;
34489;SDS011;20730;49.372;7.324;2024-02-04T01:31:28;2.83;;;2.60;;
34489;SDS011;20730;49.372;7.324;2024-02-04T01:33:54;2.67;;;2.47;;
34489;SDS011;20730;49.372;7.324;2024-02-04T01:36:21;2.72;;;2.50;;
34489;SDS011;20730;49.372;7.324;2024-02-04T01:38:48;3.33;;;2.88;;
34489;SDS011;20730;49.372;7.324;2024-02-04T01:41:15;3.10;;;2.67;;
34489;SDS011;20730;49.372;7.324;2024-02-04T01:43:41;2.42;;;2.22;;
34489;SDS011;20730;49.372;7.324;2024-02-04T01:46:08;3.90;;;3.50;;
34489;SDS011;20730;49.372;7.324;2024-02-04T01:48:35;3.58;;;3.15;;
34489;SDS011;20730;49.372;7.324;2024-02-04T01:51:03;5.10;;;3.50;;
34489;SDS011;20730;49.372;7.324;2024-02-04T01:53:29;4.68;;;3.72;;
34489;SDS011;20730;49.372;7.324;2024-02-04T01:55:58;3.63;;;3.20;;
34489;SDS011;20730;49.372;7.324;2024-02-04T01:58:25;4.15;;;3.70;;
34489;SDS011;20730;49.372;7.324;2024-02-04T02:00:52;5.55;;;4.80;;
34489;SDS011;20730;49.372;7.324;2024-02-04T02:03:19;6.40;;;4.97;;
34489;SDS011;20730;49.372;7.324;2024-02-04T02:05:46;5.65;;;5.10;;
34489;SDS011;20730;49.372;7.324;2024-02-04T02:08:12;5.45;;;4.85;;
34489;SDS011;20730;49.372;7.324;2024-02-04T02:10:39;6.28;;;5.38;;
34489;SDS011;20730;49.372;7.324;2024-02-04T02:13:11;7.95;;;6.32;;
34489;SDS011;20730;49.372;7.324;2024-02-04T02:15:43;5.97;;;5.20;;
34489;SDS011;20730;49.372;7.324;2024-02-04T02:18:15;5.90;;;5.30;;
34489;SDS011;20730;49.372;7.324;2024-02-04T02:23:22;5.63;;;4.55;;
34489;SDS011;20730;49.372;7.324;2024-02-04T02:25:49;6.80;;;5.45;;
34489;SDS011;20730;49.372;7.324;2024-02-04T02:28:15;7.55;;;5.22;;
34489;SDS011;20730;49.372;7.324;2024-02-04T02:30:42;6.30;;;5.50;;
34489;SDS011;20730;49.372;7.324;2024-02-04T02:33:08;6.38;;;5.13;;
34489;SDS011;20730;49.372;7.324;2024-02-04T02:35:36;7.78;;;5.28;;
34489;SDS011;20730;49.372;7.324;2024-02-04T02:40:49;6.63;;;5.13;;
34489;SDS011;20730;49.372;7.324;2024-02-04T02:43:17;6.80;;;5.07;;
34489;SDS011;20730;49.372;7.324;2024-02-04T02:45:44;5.97;;;4.50;;
34489;SDS011;20730;49.372;7.324;2024-02-04T02:48:11;5.22;;;3.97;;
34489;SDS011;20730;49.372;7.324;2024-02-04T02:50:39;4.82;;;4.15;;
34489;SDS011;20730;49.372;7.324;2024-02-04T02:53:05;4.82;;;3.85;;
34489;SDS011;20730;49.372;7.324;2024-02-04T02:55:32;4.30;;;3.58;;
34489;SDS011;20730;49.372;7.324;2024-02-04T02:57:59;4.10;;;3.45;;
34489;SDS011;20730;49.372;7.324;2024-02-04T03:00:26;4.93;;;3.70;;
34489;SDS011;20730;49.372;7.324;2024-02-04T03:02:52;5.07;;;3.58;;
34489;SDS011;20730;49.372;7.324;2024-02-04T03:05:19;5.07;;;3.25;;
34489;SDS011;20730;49.372;7.324;2024-02-04T03:07:46;4.70;;;3.78;;
34489;SDS011;20730;49.372;7.324;2024-02-04T03:10:13;4.38;;;3.40;;
34489;SDS011;20730;49.372;7.324;2024-02-04T03:12:40;3.88;;;3.33;;
34489;SDS011;20730;49.372;7.324;2024-02-04T03:15:06;6.85;;;3.85;;
34489;SDS011;20730;49.372;7.324;2024-02-04T03:17:34;5.18;;;3.33;;
34489;SDS011;20730;49.372;7.324;2024-02-04T03:20:00;5.03;;;3.97;;
34489;SDS011;20730;49.372;7.324;2024-02-04T03:22:27;4.68;;;3.78;;
34489;SDS011;20730;49.372;7.324;2024-02-04T03:24:54;6.80;;;4.10;;
34489;SDS011;20730;49.372;7.324;2024-02-04T03:27:21;6.25;;;3.65;;
34489;SDS011;20730;49.372;7.324;2024-02-04T03:29:48;7.80;;;3.78;;
34489;SDS011;20730;49.372;7.324;2024-02-04T03:32:15;5.00;;;4.10;;
34489;SDS011;20730;49.372;7.324;2024-02-04T03:34:42;4.22;;;3.50;;
34489;SDS011;20730;49.372;7.324;2024-02-04T03:37:09;4.55;;;4.05;;
34489;SDS011;20730;49.372;7.324;2024-02-04T03:39:36;4.22;;;3.80;;
34489;SDS011;20730;49.372;7.324;2024-02-04T03:42:03;4.43;;;4.03;;
34489;SDS011;20730;49.372;7.324;2024-02-04T03:44:30;5.05;;;4.38;;
34489;SDS011;20730;49.372;7.324;2024-02-04T03:46:56;5.05;;;4.18;;
34489;SDS011;20730;49.372;7.324;2024-02-04T03:49:23;5.45;;;4.75;;
34489;SDS011;20730;49.372;7.324;2024-02-04T03:51:50;4.68;;;3.67;;
34489;SDS011;20730;49.372;7.324;2024-02-04T03:54:17;4.63;;;3.90;;
34489;SDS011;20730;49.372;7.324;2024-02-04T03:56:45;6.50;;;4.80;;
34489;SDS011;20730;49.372;7.324;2024-02-04T03:59:12;4.28;;;3.88;;
34489;SDS011;20730;49.372;7.324;2024-02-04T04:01:39;4.80;;;4.18;;
34489;SDS011;20730;49.372;7.324;2024-02-04T04:04:06;6.10;;;3.70;;
34489;SDS011;20730;49.372;7.324;2024-02-04T04:06:33;4.13;;;3.67;;
34489;SDS011;20730;49.372;7.324;2024-02-04T04:09:00;3.88;;;3.42;;
34489;SDS011;20730;49.372;7.324;2024-02-04T04:11:26;4.38;;;3.97;;
34489;SDS011;20730;49.372;7.324;2024-02-04T04:13:53;5.00;;;4.22;;
34489;SDS011;20730;49.372;7.324;2024-02-04T04:16:20;5.97;;;4.40;;
34489;SDS011;20730;49.372;7.324;2024-02-04T04:18:47;4.30;;;3.80;;
34489;SDS011;20730;49.372;7.324;2024-02-04T04:21:14;4.70;;;4.18;;
34489;SDS011;20730;49.372;7.324;2024-02-04T04:23:40;5.15;;;4.20;;
34489;SDS011;20730;49.372;7.324;2024-02-04T04:26:07;5.68;;;4.50;;
34489;SDS011;20730;49.372;7.324;2024-02-04T04:28:34;5.50;;;4.18;;
34489;SDS011;20730;49.372;7.324;2024-02-04T04:31:00;5.00;;;4.15;;
34489;SDS011;20730;49.372;7.324;2024-02-04T04:33:27;4.50;;;4.05;;
34489;SDS011;20730;49.372;7.324;2024-02-04T04:35:54;4.80;;;4.30;;
34489;SDS011;20730;49.372;7.324;2024-02-04T04:38:20;5.82;;;4.20;;
34489;SDS011;20730;49.372;7.324;2024-02-04T04:40:47;4.45;;;4.03;;
34489;SDS011;20730;49.372;7.324;2024-02-04T04:43:14;4.45;;;3.72;;
34489;SDS011;20730;49.372;7.324;2024-02-04T04:45:40;4.60;;;3.90;;
34489;SDS011;20730;49.372;7.324;2024-02-04T04:48:07;5.75;;;4.53;;
34489;SDS011;20730;49.372;7.324;2024-02-04T04:50:35;4.57;;;3.97;;
34489;SDS011;20730;49.372;7.324;2024-02-04T04:53:02;4.95;;;4.43;;
34489;SDS011;20730;49.372;7.324;2024-02-04T04:55:28;5.70;;;4.60;;
34489;SDS011;20730;49.372;7.324;2024-02-04T04:57:55;5.40;;;4.90;;
34489;SDS011;20730;49.372;7.324;2024-02-04T05:00:22;5.65;;;4.47;;
34489;SDS011;20730;49.372;7.324;2024-02-04T05:02:48;4.97;;;4.35;;
34489;SDS011;20730;49.372;7.324;2024-02-04T05:05:15;4.70;;;4.20;;
34489;SDS011;20730;49.372;7.324;2024-02-04T05:07:42;4.97;;;4.32;;
34489;SDS011;20730;49.372;7.324;2024-02-04T05:10:08;4.72;;;4.10;;
34489;SDS011;20730;49.372;7.324;2024-02-04T05:12:35;4.82;;;3.85;;
34489;SDS011;20730;49.372;7.324;2024-02-04T05:15:02;3.53;;;3.22;;
34489;SDS011;20730;49.372;7.324;2024-02-04T05:17:30;4.80;;;3.53;;
34489;SDS011;20730;49.372;7.324;2024-02-04T05:19:56;4.13;;;2.95;;
34489;SDS011;20730;49.372;7.324;2024-02-04T05:22:23;3.17;;;2.88;;
34489;SDS011;20730;49.372;7.324;2024-02-04T05:24:50;3.30;;;2.75;;
34489;SDS011;20730;49.372;7.324;2024-02-04T05:27:16;3.83;;;3.30;;
34489;SDS011;20730;49.372;7.324;2024-02-04T05:29:43;5.00;;;3.88;;
34489;SDS011;20730;49.372;7.324;2024-02-04T05:32:10;3.95;;;3.25;;
34489;SDS011;20730;49.372;7.324;2024-02-04T05:34:37;3.50;;;2.70;;
34489;SDS011;20730;49.372;7.324;2024-02-04T05:37:04;3.25;;;2.55;;
34489;SDS011;20730;49.372;7.324;2024-02-04T05:39:30;3.47;;;2.90;;
34489;SDS011;20730;49.372;7.324;2024-02-04T05:41:57;2.35;;;2.13;;
34489;SDS011;20730;49.372;7.324;2024-02-04T05:44:23;2.55;;;2.20;;
34489;SDS011;20730;49.372;7.324;2024-02-04T05:46:50;2.78;;;2.42;;
34489;SDS011;20730;49.372;7.324;2024-02-04T05:49:17;3.58;;;2.28;;
34489;SDS011;20730;49.372;7.324;2024-02-04T05:51:43;3.40;;;2.30;;
34489;SDS011;20730;49.372;7.324;2024-02-04T05:54:10;2.53;;;2.33;;
34489;SDS011;20730;49.372;7.324;2024-02-04T05:56:37;2.70;;;2.50;;
34489;SDS011;20730;49.372;7.324;2024-02-04T05:59:03;3.17;;;2.17;;
34489;SDS011;20730;49.372;7.324;2024-02-04T06:01:30;3.13;;;2.05;;
34489;SDS011;20730;49.372;7.324;2024-02-04T06:03:56;3.72;;;2.28;;
34489;SDS011;20730;49.372;7.324;2024-02-04T06:06:23;2.53;;;2.33;;
34489;SDS011;20730;49.372;7.324;2024-02-04T06:08:50;3.28;;;2.60;;
34489;SDS011;20730;49.372;7.324;2024-02-04T06:11:16;2.90;;;2.60;;
34489;SDS011;20730;49.372;7.324;2024-02-04T06:13:43;2.63;;;2.42;;
34489;SDS011;20730;49.372;7.324;2024-02-04T06:16:10;2.95;;;2.50;;
34489;SDS011;20730;49.372;7.324;2024-02-04T06:18:39;2.95;;;2.50;;
34489;SDS011;20730;49.372;7.324;2024-02-04T06:21:06;2.58;;;2.35;;
34489;SDS011;20730;49.372;7.324;2024-02-04T06:23:32;2.80;;;2.55;;
34489;SDS011;20730;49.372;7.324;2024-02-04T06:25:59;2.90;;;2.58;;
34489;SDS011;20730;49.372;7.324;2024-02-04T06:28:26;3.13;;;2.42;;
34489;SDS011;20730;49.372;7.324;2024-02-04T06:30:52;2.22;;;1.83;;
34489;SDS011;20730;49.372;7.324;2024-02-04T06:33:20;2.83;;;2.50;;
34489;SDS011;20730;49.372;7.324;2024-02-04T06:35:47;2.95;;;2.45;;
34489;SDS011;20730;49.372;7.324;2024-02-04T06:38:13;2.95;;;2.63;;
34489;SDS011;20730;49.372;7.324;2024-02-04T06:40:40;4.22;;;2.92;;
34489;SDS011;20730;49.372;7.324;2024-02-04T06:43:07;3.55;;;2.85;;
34489;SDS011;20730;49.372;7.324;2024-02-04T06:45:33;2.78;;;2.50;;
34489;SDS011;20730;49.372;7.324;2024-02-04T06:48:00;3.25;;;2.58;;
34489;SDS011;20730;49.372;7.324;2024-02-04T06:50:26;3.08;;;2.78;;
34489;SDS011;20730;49.372;7.324;2024-02-04T06:52:53;2.80;;;2.60;;
34489;SDS011;20730;49.372;7.324;2024-02-04T06:55:20;2.20;;;2.00;;
34489;SDS011;20730;49.372;7.324;2024-02-04T06:57:46;3.10;;;2.80;;
34489;SDS011;20730;49.372;7.324;2024-02-04T07:00:13;3.13;;;2.83;;
34489;SDS011;20730;49.372;7.324;2024-02-04T07:02:41;3.10;;;2.70;;
34489;SDS011;20730;49.372;7.324;2024-02-04T07:05:08;3.40;;;2.75;;
34489;SDS011;20730;49.372;7.324;2024-02-04T07:07:36;3.28;;;2.97;;
34489;SDS011;20730;49.372;7.324;2024-02-04T07:10:03;3.05;;;2.63;;
34489;SDS011;20730;49.372;7.324;2024-02-04T07:12:30;3.08;;;2.60;;
34489;SDS011;20730;49.372;7.324;2024-02-04T07:14:56;2.95;;;2.65;;
34489;SDS011;20730;49.372;7.324;2024-02-04T07:17:23;4.60;;;2.85;;
34489;SDS011;20730;49.372;7.324;2024-02-04T07:19:50;3.50;;;2.92;;
34489;SDS011;20730;49.372;7.324;2024-02-04T07:22:16;3.10;;;2.78;;
34489;SDS011;20730;49.372;7.324;2024-02-04T07:24:43;3.22;;;2.35;;
34489;SDS011;20730;49.372;7.324;2024-02-04T07:27:09;3.83;;;2.58;;
34489;SDS011;20730;49.372;7.324;2024-02-04T07:29:36;4.03;;;2.33;;
34489;SDS011;20730;49.372;7.324;2024-02-04T07:32:02;2.70;;;2.40;;
34489;SDS011;20730;49.372;7.324;2024-02-04T07:34:29;2.85;;;2.30;;
34489;SDS011;20730;49.372;7.324;2024-02-04T07:36:56;2.20;;;2.00;;
34489;SDS011;20730;49.372;7.324;2024-02-04T07:39:22;2.40;;;2.20;;
34489;SDS011;20730;49.372;7.324;2024-02-04T07:41:49;2.47;;;2.13;;
34489;SDS011;20730;49.372;7.324;2024-02-04T07:44:15;3.33;;;2.35;;
34489;SDS011;20730;49.372;7.324;2024-02-04T07:46:42;2.83;;;2.20;;
34489;SDS011;20730;49.372;7.324;2024-02-04T07:49:08;2.15;;;1.90;;
34489;SDS011;20730;49.372;7.324;2024-02-04T07:51:35;3.42;;;2.00;;
34489;SDS011;20730;49.372;7.324;2024-02-04T07:54:02;1.80;;;1.70;;
34489;SDS011;20730;49.372;7.324;2024-02-04T07:56:29;3.03;;;2.03;;
34489;SDS011;20730;49.372;7.324;2024-02-04T07:58:55;2.85;;;2.30;;
34489;SDS011;20730;49.372;7.324;2024-02-04T08:01:22;2.78;;;2.10;;
34489;SDS011;20730;49.372;7.324;2024-02-04T08:03:50;2.83;;;1.85;;
34489;SDS011;20730;49.372;7.324;2024-02-04T08:06:17;2.42;;;2.15;;
34489;SDS011;20730;49.372;7.324;2024-02-04T08:08:44;2.22;;;2.03;;
34489;SDS011;20730;49.372;7.324;2024-02-04T08:11:17;2.35;;;1.95;;
34489;SDS011;20730;49.372;7.324;2024-02-04T08:13:44;1.90;;;1.70;;
34489;SDS011;20730;49.372;7.324;2024-02-04T08:16:11;2.22;;;1.98;;
34489;SDS011;20730;49.372;7.324;2024-02-04T08:18:37;2.10;;;1.90;;
34489;SDS011;20730;49.372;7.324;2024-02-04T08:21:04;2.60;;;2.05;;
34489;SDS011;20730;49.372;7.324;2024-02-04T08:23:31;3.03;;;2.30;;
34489;SDS011;20730;49.372;7.324;2024-02-04T08:25:59;2.83;;;2.35;;
34489;SDS011;20730;49.372;7.324;2024-02-04T08:28:25;2.50;;;2.17;;
34489;SDS011;20730;49.372;7.324;2024-02-04T08:30:52;3.78;;;2.42;;
34489;SDS011;20730;49.372;7.324;2024-02-04T08:33:19;2.60;;;2.30;;
34489;SDS011;20730;49.372;7.324;2024-02-04T08:35:45;2.75;;;2.42;;
34489;SDS011;20730;49.372;7.324;2024-02-04T08:38:12;3.17;;;2.13;;
34489;SDS011;20730;49.372;7.324;2024-02-04T08:40:38;3.08;;;2.78;;
34489;SDS011;20730;49.372;7.324;2024-02-04T08:43:05;2.90;;;2.40;;
34489;SDS011;20730;49.372;7.324;2024-02-04T08:45:32;2.72;;;2.53;;
34489;SDS011;20730;49.372;7.324;2024-02-04T08:47:58;3.55;;;2.63;;
34489;SDS011;20730;49.372;7.324;2024-02-04T08:50:25;3.65;;;2.65;;
34489;SDS011;20730;49.372;7.324;2024-02-04T08:52:52;5.30;;;2.95;;
34489;SDS011;20730;49.372;7.324;2024-02-04T08:55:19;3.63;;;2.95;;
34489;SDS011;20730;49.372;7.324;2024-02-04T08:57:45;2.88;;;2.30;;
34489;SDS011;20730;49.372;7.324;2024-02-04T09:00:15;3.38;;;2.95;;
34489;SDS011;20730;49.372;7.324;2024-02-04T09:02:42;2.78;;;2.40;;
34489;SDS011;20730;49.372;7.324;2024-02-04T09:05:09;3.20;;;2.50;;
34489;SDS011;20730;49.372;7.324;2024-02-04T09:07:35;2.70;;;2.28;;
34489;SDS011;20730;49.372;7.324;2024-02-04T09:10:03;2.22;;;2.03;;
34489;SDS011;20730;49.372;7.324;2024-02-04T09:12:30;4.32;;;2.40;;
34489;SDS011;20730;49.372;7.324;2024-02-04T09:14:56;2.60;;;2.40;;
34489;SDS011;20730;49.372;7.324;2024-02-04T09:17:23;3.22;;;2.90;;
34489;SDS011;20730;49.372;7.324;2024-02-04T09:19:50;4.38;;;2.70;;
34489;SDS011;20730;49.372;7.324;2024-02-04T09:22:17;3.63;;;2.80;;
34489;SDS011;20730;49.372;7.324;2024-02-04T09:24:43;2.80;;;2.47;;
34489;SDS011;20730;49.372;7.324;2024-02-04T09:27:10;2.45;;;2.08;;
34489;SDS011;20730;49.372;7.324;2024-02-04T09:29:37;3.53;;;2.80;;
34489;SDS011;20730;49.372;7.324;2024-02-04T09:32:03;2.50;;;2.15;;
34489;SDS011;20730;49.372;7.324;2024-02-04T09:34:30;2.08;;;1.77;;
34489;SDS011;20730;49.372;7.324;2024-02-04T09:36:57;3.03;;;2.38;;
34489;SDS011;20730;49.372;7.324;2024-02-04T09:39:24;3.10;;;2.38;;
34489;SDS011;20730;49.372;7.324;2024-02-04T09:41:51;2.33;;;2.00;;
34489;SDS011;20730;49.372;7.324;2024-02-04T09:44:17;2.30;;;2.10;;
34489;SDS011;20730;49.372;7.324;2024-02-04T09:46:45;1.65;;;1.55;;
34489;SDS011;20730;49.372;7.324;2024-02-04T09:49:12;1.83;;;1.73;;
34489;SDS011;20730;49.372;7.324;2024-02-04T09:51:39;1.80;;;1.70;;
34489;SDS011;20730;49.372;7.324;2024-02-04T09:54:06;1.70;;;1.58;;
34489;SDS011;20730;49.372;7.324;2024-02-04T09:56:34;1.80;;;1.65;;
34489;SDS011;20730;49.372;7.324;2024-02-04T09:59:02;2.00;;;1.80;;
34489;SDS011;20730;49.372;7.324;2024-02-04T10:01:29;1.80;;;1.50;;
34489;SDS011;20730;49.372;7.324;2024-02-04T10:03:56;2.03;;;1.90;;
34489;SDS011;20730;49.372;7.324;2024-02-04T10:06:23;2.58;;;1.95;;
34489;SDS011;20730;49.372;7.324;2024-02-04T10:08:50;2.65;;;1.98;;
34489;SDS011;20730;49.372;7.324;2024-02-04T10:11:17;3.45;;;2.10;;
34489;SDS011;20730;49.372;7.324;2024-02-04T10:16:11;2.58;;;2.38;;
34489;SDS011;20730;49.372;7.324;2024-02-04T10:18:45;3.35;;;2.70;;
34489;SDS011;20730;49.372;7.324;2024-02-04T10:21:15;3.22;;;2.50;;
34489;SDS011;20730;49.372;7.324;2024-02-04T10:23:43;4.53;;;3.00;;
34489;SDS011;20730;49.372;7.324;2024-02-04T10:26:10;5.75;;;3.55;;
34489;SDS011;20730;49.372;7.324;2024-02-04T10:28:39;3.22;;;2.92;;
34489;SDS011;20730;49.372;7.324;2024-02-04T10:31:10;3.50;;;3.15;;
34489;SDS011;20730;49.372;7.324;2024-02-04T10:33:37;4.82;;;4.25;;
34489;SDS011;20730;49.372;7.324;2024-02-04T10:36:04;3.67;;;2.83;;
34489;SDS011;20730;49.372;7.324;2024-02-04T10:38:32;6.22;;;3.47;;
34489;SDS011;20730;49.372;7.324;2024-02-04T10:41:01;5.30;;;3.60;;
34489;SDS011;20730;49.372;7.324;2024-02-04T10:43:30;4.18;;;3.50;;
34489;SDS011;20730;49.372;7.324;2024-02-04T10:45:57;3.40;;;3.10;;
34489;SDS011;20730;49.372;7.324;2024-02-04T10:48:27;3.08;;;2.65;;
34489;SDS011;20730;49.372;7.324;2024-02-04T10:50:55;3.65;;;2.72;;
34489;SDS011;20730;49.372;7.324;2024-02-04T10:53:23;3.75;;;3.20;;
34489;SDS011;20730;49.372;7.324;2024-02-04T10:55:50;3.38;;;2.60;;
34489;SDS011;20730;49.372;7.324;2024-02-04T10:58:18;3.97;;;3.30;;
34489;SDS011;20730;49.372;7.324;2024-02-04T11:00:46;6.97;;;4.63;;
34489;SDS011;20730;49.372;7.324;2024-02-04T11:03:13;3.22;;;2.88;;
34489;SDS011;20730;49.372;7.324;2024-02-04T11:05:41;3.58;;;3.22;;
34489;SDS011;20730;49.372;7.324;2024-02-04T11:08:09;3.45;;;3.13;;
34489;SDS011;20730;49.372;7.324;2024-02-04T11:10:37;4.00;;;3.55;;
34489;SDS011;20730;49.372;7.324;2024-02-04T11:13:05;6.53;;;3.70;;
34489;SDS011;20730;49.372;7.324;2024-02-04T11:15:35;4.32;;;2.28;;
34489;SDS011;20730;49.372;7.324;2024-02-04T11:20:57;4.18;;;2.55;;
34489;SDS011;20730;49.372;7.324;2024-02-04T11:23:32;4.75;;;3.00;;
34489;SDS011;20730;49.372;7.324;2024-02-04T11:26:02;3.25;;;2.90;;
34489;SDS011;20730;49.372;7.324;2024-02-04T11:28:31;4.50;;;3.30;;
34489;SDS011;20730;49.372;7.324;2024-02-04T11:30:58;3.33;;;2.90;;
34489;SDS011;20730;49.372;7.324;2024-02-04T11:33:25;3.03;;;2.38;;
34489;SDS011;20730;49.372;7.324;2024-02-04T11:36:02;3.65;;;3.25;;
34489;SDS011;20730;49.372;7.324;2024-02-04T11:38:30;2.85;;;2.60;;
34489;SDS011;20730;49.372;7.324;2024-02-04T11:40:57;3.15;;;2.85;;
34489;SDS011;20730;49.372;7.324;2024-02-04T11:43:24;5.10;;;2.35;;
34489;SDS011;20730;49.372;7.324;2024-02-04T11:45:52;2.63;;;2.33;;
34489;SDS011;20730;49.372;7.324;2024-02-04T11:48:19;2.95;;;2.67;;
34489;SDS011;20730;49.372;7.324;2024-02-04T11:50:53;4.15;;;2.78;;
34489;SDS011;20730;49.372;7.324;2024-02-04T11:53:20;2.78;;;2.58;;
34489;SDS011;20730;49.372;7.324;2024-02-04T11:55:48;3.75;;;2.65;;
34489;SDS011;20730;49.372;7.324;2024-02-04T11:58:18;3.65;;;3.35;;
34489;SDS011;20730;49.372;7.324;2024-02-04T12:00:45;3.75;;;3.45;;
34489;SDS011;20730;49.372;7.324;2024-02-04T12:03:12;4.82;;;3.80;;
34489;SDS011;20730;49.372;7.324;2024-02-04T12:05:38;4.22;;;3.83;;
34489;SDS011;20730;49.372;7.324;2024-02-04T12:08:05;4.28;;;3.88;;
34489;SDS011;20730;49.372;7.324;2024-02-04T12:10:33;5.45;;;4.18;;
34489;SDS011;20730;49.372;7.324;2024-02-04T12:13:04;4.03;;;3.53;;
34489;SDS011;20730;49.372;7.324;2024-02-04T12:15:31;4.88;;;4.22;;
34489;SDS011;20730;49.372;7.324;2024-02-04T12:18:10;4.68;;;4.28;;
34489;SDS011;20730;49.372;7.324;2024-02-04T12:20:38;5.00;;;4.47;;
34489;SDS011;20730;49.372;7.324;2024-02-04T12:23:05;4.65;;;4.10;;
34489;SDS011;20730;49.372;7.324;2024-02-04T12:25:32;4.25;;;3.85;;
34489;SDS011;20730;49.372;7.324;2024-02-04T12:27:58;5.18;;;4.45;;
34489;SDS011;20730;49.372;7.324;2024-02-04T12:30:29;6.78;;;4.82;;
34489;SDS011;20730;49.372;7.324;2024-02-04T12:35:22;4.57;;;4.18;;
34489;SDS011;20730;49.372;7.324;2024-02-04T12:37:50;6.88;;;4.93;;
34489;SDS011;20730;49.372;7.324;2024-02-04T12:40:26;5.70;;;4.97;;
34489;SDS011;20730;49.372;7.324;2024-02-04T12:45:20;7.32;;;4.45;;
34489;SDS011;20730;49.372;7.324;2024-02-04T12:47:50;6.18;;;5.32;;
34489;SDS011;20730;49.372;7.324;2024-02-04T12:50:17;6.22;;;5.63;;
34489;SDS011;20730;49.372;7.324;2024-02-04T12:52:48;8.10;;;5.53;;
34489;SDS011;20730;49.372;7.324;2024-02-04T12:57:41;6.80;;;6.13;;
34489;SDS011;20730;49.372;7.324;2024-02-04T13:00:08;6.57;;;5.97;;
34489;SDS011;20730;49.372;7.324;2024-02-04T13:02:35;7.05;;;6.35;;
34489;SDS011;20730;49.372;7.324;2024-02-04T13:05:02;6.90;;;6.20;;
34489;SDS011;20730;49.372;7.324;2024-02-04T13:07:28;7.32;;;6.63;;
34489;SDS011;20730;49.372;7.324;2024-02-04T13:09:58;7.15;;;6.38;;
34489;SDS011;20730;49.372;7.324;2024-02-04T13:12:26;7.57;;;6.88;;
34489;SDS011;20730;49.372;7.324;2024-02-04T13:14:53;7.20;;;6.50;;
34489;SDS011;20730;49.372;7.324;2024-02-04T13:17:19;7.13;;;6.45;;
34489;SDS011;20730;49.372;7.324;2024-02-04T13:19:46;7.05;;;6.43;;
34489;SDS011;20730;49.372;7.324;2024-02-04T13:22:13;6.68;;;6.07;;
34489;SDS011;20730;49.372;7.324;2024-02-04T13:24:42;7.85;;;7.05;;
34489;SDS011;20730;49.372;7.324;2024-02-04T13:27:08;7.30;;;6.55;;
34489;SDS011;20730;49.372;7.324;2024-02-04T13:29:35;8.10;;;7.30;;
34489;SDS011;20730;49.372;7.324;2024-02-04T13:32:02;8.13;;;7.43;;
34489;SDS011;20730;49.372;7.324;2024-02-04T13:34:28;7.93;;;7.13;;
34489;SDS011;20730;49.372;7.324;2024-02-04T13:36:55;7.82;;;7.03;;
34489;SDS011;20730;49.372;7.324;2024-02-04T13:39:22;7.30;;;6.57;;
34489;SDS011;20730;49.372;7.324;2024-02-04T13:41:49;7.38;;;6.68;;
34489;SDS011;20730;49.372;7.324;2024-02-04T13:44:15;8.63;;;7.13;;
34489;SDS011;20730;49.372;7.324;2024-02-04T13:46:42;8.38;;;7.57;;
34489;SDS011;20730;49.372;7.324;2024-02-04T13:49:09;7.00;;;6.40;;
34489;SDS011;20730;49.372;7.324;2024-02-04T13:51:41;7.80;;;6.97;;
34489;SDS011;20730;49.372;7.324;2024-02-04T13:54:11;7.43;;;6.18;;
34489;SDS011;20730;49.372;7.324;2024-02-04T13:56:42;6.95;;;6.25;;
34489;SDS011;20730;49.372;7.324;2024-02-04T13:59:09;7.88;;;7.07;;
34489;SDS011;20730;49.372;7.324;2024-02-04T14:01:35;7.15;;;6.45;;
34489;SDS011;20730;49.372;7.324;2024-02-04T14:04:02;6.88;;;6.15;;
34489;SDS011;20730;49.372;7.324;2024-02-04T14:06:29;6.35;;;5.75;;
34489;SDS011;20730;49.372;7.324;2024-02-04T14:08:55;7.15;;;6.10;;
34489;SDS011;20730;49.372;7.324;2024-02-04T14:11:22;6.28;;;5.53;;
34489;SDS011;20730;49.372;7.324;2024-02-04T14:13:48;6.63;;;4.93;;
34489;SDS011;20730;49.372;7.324;2024-02-04T14:16:15;6.80;;;5.75;;
34489;SDS011;20730;49.372;7.324;2024-02-04T14:18:42;5.60;;;5.00;;
34489;SDS011;20730;49.372;7.324;2024-02-04T14:21:12;5.10;;;4.60;;
34489;SDS011;20730;49.372;7.324;2024-02-04T14:23:41;4.20;;;3.80;;
34489;SDS011;20730;49.372;7.324;2024-02-04T14:26:07;4.20;;;3.83;;
34489;SDS011;20730;49.372;7.324;2024-02-04T14:28:34;4.28;;;2.95;;
34489;SDS011;20730;49.372;7.324;2024-02-04T14:31:07;3.92;;;3.53;;
34489;SDS011;20730;49.372;7.324;2024-02-04T14:33:34;4.32;;;3.92;;
34489;SDS011;20730;49.372;7.324;2024-02-04T14:36:01;3.53;;;3.22;;
34489;SDS011;20730;49.372;7.324;2024-02-04T14:38:27;4.22;;;3.85;;
34489;SDS011;20730;49.372;7.324;2024-02-04T14:40:54;4.25;;;3.85;;
34489;SDS011;20730;49.372;7.324;2024-02-04T14:43:20;3.58;;;3.28;;
34489;SDS011;20730;49.372;7.324;2024-02-04T14:45:49;3.00;;;2.70;;
34489;SDS011;20730;49.372;7.324;2024-02-04T14:48:16;3.15;;;2.47;;
34489;SDS011;20730;49.372;7.324;2024-02-04T14:50:43;4.15;;;2.55;;
34489;SDS011;20730;49.372;7.324;2024-02-04T14:53:10;6.40;;;3.58;;
34489;SDS011;20730;49.372;7.324;2024-02-04T14:55:36;2.65;;;2.40;;
34489;SDS011;20730;49.372;7.324;2024-02-04T14:58:03;2.30;;;2.03;;
34489;SDS011;20730;49.372;7.324;2024-02-04T15:00:30;1.92;;;1.83;;
34489;SDS011;20730;49.372;7.324;2024-02-04T15:02:56;3.17;;;2.10;;
34489;SDS011;20730;49.372;7.324;2024-02-04T15:05:23;3.78;;;2.47;;